Time;durP1;ratioP1;P1;durP2;ratioP2;P2;SDS_P1;SDS_P2;PMS_P1;PMS_P2;Temp;Humidity;BMP_temperature;BMP_pressure;BME280_temperature;BME280_humidity;BME280_pressure;Samples;Min_cycle;Max_cycle;Signal;HPM_P1;HPM_P2
2022/11/26 00:02:16;;;;;;;16.08;5.55;;;6.00;99.90;;;;;;5055098;28;20036;-76
2022/11/26 00:04:41;;;;;;;20.85;5.60;;;6.00;99.90;;;;;;5055537;28;20366;-76
2022/11/26 00:07:10;;;;;;;27.55;5.95;;;6.00;99.90;;;;;;5054044;28;20036;-76
2022/11/26 00:09:35;;;;;;;18.02;5.10;;;6.00;99.90;;;;;;5055212;28;20052;-76
2022/11/26 00:12:25;;;;;;;30.40;5.28;;;6.00;99.90;;;;;;5055207;28;20036;-77
2022/11/26 00:14:51;;;;;;;16.27;5.45;;;6.10;99.90;;;;;;5054121;28;20469;-77
2022/11/26 00:17:18;;;;;;;21.33;5.68;;;6.00;99.90;;;;;;5054982;28;20033;-75
2022/11/26 00:19:44;;;;;;;18.38;5.50;;;6.00;99.90;;;;;;5054489;28;20067;-77
2022/11/26 00:22:25;;;;;;;25.35;5.55;;;5.90;99.90;;;;;;5042604;28;20393;-76
2022/11/26 00:24:52;;;;;;;16.65;5.75;;;6.00;99.90;;;;;;5054903;28;20041;-76
2022/11/26 00:27:18;;;;;;;25.88;4.95;;;5.90;99.90;;;;;;5055877;28;20041;-75
2022/11/26 00:29:44;;;;;;;24.10;5.95;;;5.90;99.90;;;;;;5055340;28;20025;-75
2022/11/26 00:32:18;;;;;;;24.33;5.38;;;5.90;99.90;;;;;;5054996;28;20063;-76
2022/11/26 00:34:43;;;;;;;21.30;5.68;;;5.80;99.90;;;;;;5054340;28;20021;-77
2022/11/26 00:37:26;;;;;;;16.13;4.78;;;5.90;99.90;;;;;;5054997;28;20218;-77
2022/11/26 00:39:52;;;;;;;14.32;4.78;;;5.70;99.90;;;;;;5055150;28;20067;-76
2022/11/26 00:42:18;;;;;;;18.63;5.65;;;5.60;99.90;;;;;;5055333;28;20024;-75
2022/11/26 00:44:44;;;;;;;21.98;5.45;;;5.70;99.90;;;;;;5055495;28;20021;-75
2022/11/26 00:47:10;;;;;;;27.67;5.53;;;5.60;99.90;;;;;;5054496;28;20025;-76
2022/11/26 00:49:35;;;;;;;23.70;6.28;;;5.60;99.90;;;;;;5053922;28;20032;-75
2022/11/26 00:52:01;;;;;;;19.20;5.55;;;5.60;99.90;;;;;;5054256;28;20021;-75
2022/11/26 00:54:28;;;;;;;18.02;5.75;;;5.60;99.90;;;;;;5054793;28;20040;-77
2022/11/26 00:56:53;;;;;;;22.75;6.00;;;5.60;99.90;;;;;;5053044;28;20036;-76
2022/11/26 00:59:21;;;;;;;19.52;6.07;;;5.70;99.90;;;;;;5056180;28;20029;-75
2022/11/26 01:01:48;;;;;;;16.35;5.32;;;5.70;99.90;;;;;;5054986;28;20381;-75
2022/11/26 01:04:14;;;;;;;14.15;5.53;;;5.70;99.90;;;;;;5055379;28;20032;-76
2022/11/26 01:06:42;;;;;;;23.05;5.53;;;5.70;99.90;;;;;;5055472;28;20033;-77
2022/11/26 01:09:16;;;;;;;25.35;6.03;;;5.80;99.90;;;;;;5053891;28;20112;-76
2022/11/26 01:11:42;;;;;;;18.95;5.75;;;5.80;99.90;;;;;;5054555;28;20029;-76
2022/11/26 01:14:16;;;;;;;24.48;6.55;;;5.80;99.90;;;;;;5054436;28;20025;-76
2022/11/26 01:16:44;;;;;;;18.55;5.70;;;5.80;99.90;;;;;;5054171;28;20040;-75
2022/11/26 01:19:12;;;;;;;28.63;6.20;;;5.70;99.90;;;;;;5053906;28;20029;-76
2022/11/26 01:21:38;;;;;;;20.15;6.53;;;5.70;99.90;;;;;;5054330;28;20380;-76
2022/11/26 01:24:04;;;;;;;24.10;6.55;;;5.70;99.90;;;;;;5053917;28;20036;-77
2022/11/26 01:26:35;;;;;;;16.42;6.63;;;5.60;99.90;;;;;;5049038;28;20420;-76
2022/11/26 01:29:01;;;;;;;;;;;5.60;99.90;;;;;;5046648;28;20029;-75
2022/11/26 01:31:28;;;;;;;27.55;6.53;;;5.50;99.90;;;;;;5054172;28;19911;-76
2022/11/26 01:33:55;;;;;;;18.30;6.03;;;5.50;99.90;;;;;;5054156;28;20032;-76
2022/11/26 01:36:35;;;;;;;18.27;7.00;;;5.50;99.90;;;;;;5054175;28;20025;-75
2022/11/26 01:39:04;;;;;;;26.67;7.00;;;5.50;99.90;;;;;;5053157;28;20053;-76
2022/11/26 01:41:39;;;;;;;24.58;7.15;;;5.50;99.90;;;;;;5052705;28;20033;-76
2022/11/26 01:44:10;;;;;;;22.92;7.88;;;5.60;99.90;;;;;;5044164;28;20036;-76
2022/11/26 01:46:36;;;;;;;22.25;7.53;;;5.60;99.90;;;;;;5053864;28;20116;-76
2022/11/26 01:49:20;;;;;;;19.58;6.40;;;5.60;99.90;;;;;;5054048;28;20040;-75
2022/11/26 01:51:58;;;;;;;29.40;7.13;;;5.50;99.90;;;;;;5053041;28;20029;-75
2022/11/26 01:54:24;;;;;;;29.35;7.45;;;5.50;99.90;;;;;;5055159;28;20028;-75
2022/11/26 01:56:53;;;;;;;19.92;6.97;;;5.50;99.90;;;;;;5054517;28;20033;-77
2022/11/26 01:59:19;;;;;;;23.50;7.57;;;5.50;99.90;;;;;;5053116;28;20021;-75
2022/11/26 02:01:45;;;;;;;32.33;8.30;;;5.50;99.90;;;;;;5043331;28;20497;-75
2022/11/26 02:04:23;;;;;;;26.73;7.15;;;5.50;99.90;;;;;;5050620;28;20023;-76
2022/11/26 02:06:50;;;;;;;20.63;7.25;;;5.50;99.90;;;;;;5053319;28;20037;-77
2022/11/26 02:09:17;;;;;;;20.20;7.65;;;5.50;99.90;;;;;;5053699;28;20536;-76
2022/11/26 02:11:44;;;;;;;24.40;7.57;;;5.50;99.90;;;;;;5054041;28;20424;-77
2022/11/26 02:14:24;;;;;;;23.58;7.05;;;5.50;99.90;;;;;;5052998;28;20116;-76
2022/11/26 02:17:17;;;;;;;25.08;7.30;;;5.50;99.90;;;;;;5054070;28;20033;-77
2022/11/26 02:20:08;;;;;;;23.13;7.43;;;5.50;99.90;;;;;;5052799;28;20045;-76
2022/11/26 02:22:49;;;;;;;30.08;7.82;;;5.50;99.90;;;;;;5032441;28;20064;-76
2022/11/26 02:25:51;;;;;;;21.27;7.43;;;5.60;99.90;;;;;;5034085;28;20076;-76
2022/11/26 02:28:38;;;;;;;18.60;6.80;;;5.60;99.90;;;;;;5030848;28;20113;-76
2022/11/26 02:31:12;;;;;;;23.63;7.57;;;5.70;99.90;;;;;;5033378;28;20021;-76
2022/11/26 02:34:02;;;;;;;25.27;7.32;;;5.60;99.90;;;;;;5033539;28;20029;-75
2022/11/26 02:36:37;;;;;;;24.98;7.47;;;5.60;99.90;;;;;;5022068;28;20566;-76
2022/11/26 02:39:11;;;;;;;19.27;7.25;;;5.50;99.90;;;;;;5033773;28;20025;-76
2022/11/26 02:41:45;;;;;;;32.17;8.60;;;5.40;99.90;;;;;;5033207;28;20493;-75
2022/11/26 02:44:13;;;;;;;21.48;7.95;;;5.40;99.90;;;;;;5033401;28;20033;-76
2022/11/26 02:46:40;;;;;;;26.40;8.52;;;5.30;99.90;;;;;;5033072;28;20509;-77
2022/11/26 02:49:10;;;;;;;35.47;8.85;;;5.20;99.90;;;;;;5026012;28;20401;-76
2022/11/26 02:51:37;;;;;;;17.50;7.87;;;5.10;99.90;;;;;;5033624;28;20065;-77
2022/11/26 02:54:06;;;;;;;33.45;8.90;;;5.10;99.90;;;;;;5033400;28;20389;-76
2022/11/26 02:56:33;;;;;;;24.30;9.53;;;5.10;99.90;;;;;;5032226;28;20481;-76
2022/11/26 02:58:59;;;;;;;19.05;8.15;;;5.20;99.90;;;;;;5032613;28;20035;-76
2022/11/26 03:01:39;;;;;;;21.80;9.13;;;5.20;99.90;;;;;;5033468;28;20021;-76
2022/11/26 03:04:11;;;;;;;29.13;9.70;;;5.20;99.90;;;;;;5033412;28;20026;-76
2022/11/26 03:06:38;;;;;;;22.15;9.90;;;5.20;99.90;;;;;;5033867;28;20033;-75
2022/11/26 03:09:05;;;;;;;32.72;9.38;;;5.30;99.90;;;;;;5031913;28;20030;-75
2022/11/26 03:11:30;;;;;;;26.75;8.85;;;5.30;99.90;;;;;;5032699;28;20036;-76
2022/11/26 03:13:56;;;;;;;25.30;9.50;;;5.30;99.90;;;;;;5032465;28;20021;-76
2022/11/26 03:16:21;;;;;;;22.52;8.32;;;5.30;99.90;;;;;;5032170;28;20462;-76
2022/11/26 03:18:47;;;;;;;27.63;8.65;;;5.30;99.90;;;;;;5032668;28;20045;-76
2022/11/26 03:21:12;;;;;;;26.50;9.55;;;5.40;99.90;;;;;;5033565;28;20032;-76
2022/11/26 03:23:38;;;;;;;25.33;8.48;;;5.40;99.90;;;;;;5032146;28;20026;-77
2022/11/26 03:26:04;;;;;;;24.77;8.85;;;5.40;99.90;;;;;;5031764;28;20132;-76
2022/11/26 03:28:29;;;;;;;31.35;10.70;;;5.40;99.90;;;;;;5033074;28;20394;-76
2022/11/26 03:30:55;;;;;;;19.63;8.63;;;5.30;99.90;;;;;;5032490;28;20074;-76
2022/11/26 03:33:20;;;;;;;21.08;8.63;;;5.30;99.90;;;;;;5036888;28;20064;-76
2022/11/26 03:35:47;;;;;;;31.63;9.32;;;5.30;99.90;;;;;;5036423;28;20024;-75
2022/11/26 03:38:13;;;;;;;27.02;9.50;;;5.30;99.90;;;;;;5036116;28;20021;-77
2022/11/26 03:40:39;;;;;;;23.27;8.75;;;5.30;99.90;;;;;;5036605;28;20048;-76
2022/11/26 03:43:04;;;;;;;32.72;10.15;;;5.20;99.90;;;;;;5036798;28;20021;-77
2022/11/26 03:45:30;;;;;;;31.20;10.43;;;5.30;99.90;;;;;;5035797;28;20026;-77
2022/11/26 03:47:55;;;;;;;33.60;9.75;;;5.30;99.90;;;;;;5035954;28;20030;-77
2022/11/26 03:50:21;;;;;;;40.45;9.93;;;5.30;99.90;;;;;;5036317;28;20535;-77
2022/11/26 03:52:46;;;;;;;33.10;10.13;;;5.40;99.90;;;;;;5035497;28;20029;-75
2022/11/26 03:55:12;;;;;;;40.63;10.00;;;5.50;99.90;;;;;;5036265;28;20029;-76
2022/11/26 03:57:38;;;;;;;32.60;10.05;;;5.50;99.90;;;;;;5036304;28;20545;-78
2022/11/26 04:00:05;;;;;;;28.88;10.25;;;5.50;99.90;;;;;;5035110;28;20135;-77
2022/11/26 04:02:31;;;;;;;31.27;10.30;;;5.60;99.90;;;;;;5036107;28;20026;-77
2022/11/26 04:04:57;;;;;;;26.15;10.05;;;5.60;99.90;;;;;;5036074;28;20025;-76
2022/11/26 04:07:23;;;;;;;37.75;11.20;;;5.60;99.90;;;;;;5035182;28;20033;-76
2022/11/26 04:09:48;;;;;;;29.83;10.13;;;5.60;99.90;;;;;;5035542;28;20045;-77
2022/11/26 04:12:14;;;;;;;33.33;11.43;;;5.60;99.90;;;;;;5035090;28;20040;-76
2022/11/26 04:14:39;;;;;;;29.42;11.43;;;5.60;99.90;;;;;;5035739;28;20021;-76
2022/11/26 04:17:05;;;;;;;38.20;10.70;;;5.60;99.90;;;;;;5035941;28;20021;-76
2022/11/26 04:19:30;;;;;;;32.45;10.32;;;5.60;99.90;;;;;;5035294;28;20022;-76
2022/11/26 04:21:56;;;;;;;27.17;10.43;;;5.60;99.90;;;;;;5035280;28;20025;-76
2022/11/26 04:24:21;;;;;;;32.85;10.82;;;5.60;99.90;;;;;;5035393;28;20092;-75
2022/11/26 04:26:47;;;;;;;34.20;11.13;;;5.60;99.90;;;;;;5035423;28;20112;-76
2022/11/26 04:29:12;;;;;;;27.10;11.43;;;5.50;99.90;;;;;;5035371;28;20083;-76
2022/11/26 04:31:38;;;;;;;32.50;11.30;;;5.50;99.90;;;;;;5035860;28;20515;-78
2022/11/26 04:34:04;;;;;;;37.70;10.45;;;5.50;99.90;;;;;;5035039;28;20029;-76
2022/11/26 04:36:29;;;;;;;28.63;10.80;;;5.50;99.90;;;;;;5035246;28;20444;-77
2022/11/26 04:38:57;;;;;;;33.55;10.57;;;5.40;99.90;;;;;;5034948;28;20469;-76
2022/11/26 04:41:22;;;;;;;42.08;12.85;;;5.50;99.90;;;;;;5034235;28;20433;-77
2022/11/26 04:43:48;;;;;;;25.85;10.75;;;5.50;99.90;;;;;;5034299;28;20071;-78
2022/11/26 04:46:13;;;;;;;34.83;11.13;;;5.40;99.90;;;;;;5034950;28;20108;-77
2022/11/26 04:48:39;;;;;;;29.27;12.32;;;5.50;99.90;;;;;;5034583;28;20029;-76
2022/11/26 04:51:05;;;;;;;32.78;11.25;;;5.50;99.90;;;;;;5030976;28;20025;-76
2022/11/26 04:53:30;;;;;;;34.15;11.98;;;5.50;99.90;;;;;;5024961;28;20491;-76
2022/11/26 04:55:56;;;;;;;29.15;11.90;;;5.50;99.90;;;;;;5033814;28;20553;-76
2022/11/26 04:58:21;;;;;;;33.72;12.57;;;5.50;99.90;;;;;;5036233;28;20014;-76
2022/11/26 05:00:48;;;;;;;41.40;13.05;;;5.50;99.90;;;;;;5035725;28;20029;-76
2022/11/26 05:03:13;;;;;;;33.97;12.38;;;5.50;99.90;;;;;;5034753;28;20052;-77
2022/11/26 05:05:39;;;;;;;31.27;13.23;;;5.50;99.90;;;;;;5035554;28;20052;-77
2022/11/26 05:08:05;;;;;;;30.85;12.57;;;5.50;99.90;;;;;;5034736;28;20432;-76
2022/11/26 05:10:31;;;;;;;46.65;13.75;;;5.50;99.90;;;;;;5034854;28;20033;-76
2022/11/26 05:12:56;;;;;;;36.28;13.82;;;5.50;99.90;;;;;;5035428;28;20474;-77
2022/11/26 05:15:22;;;;;;;29.30;13.40;;;5.50;99.90;;;;;;5035905;28;20119;-77
2022/11/26 05:17:47;;;;;;;37.45;14.00;;;5.60;99.90;;;;;;5036170;28;20037;-76
2022/11/26 05:20:13;;;;;;;40.72;12.82;;;5.60;99.90;;;;;;5035023;28;20030;-75
2022/11/26 05:22:40;;;;;;;43.17;14.20;;;5.70;99.90;;;;;;5034840;28;20037;-76
2022/11/26 05:25:06;;;;;;;37.03;13.48;;;5.60;99.90;;;;;;5034133;28;20045;-76
2022/11/26 05:27:31;;;;;;;30.17;13.95;;;5.70;99.90;;;;;;5034563;28;20030;-76
2022/11/26 05:29:57;;;;;;;35.25;13.98;;;5.70;99.90;;;;;;5034340;28;20056;-76
2022/11/26 05:32:25;;;;;;;39.40;13.60;;;5.70;99.90;;;;;;5035211;28;20030;-76
2022/11/26 05:34:51;;;;;;;35.80;13.73;;;5.70;99.90;;;;;;5034696;28;20030;-77
2022/11/26 05:37:16;;;;;;;43.08;14.52;;;5.70;99.90;;;;;;5040512;28;20087;-76
2022/11/26 05:39:43;;;;;;;37.70;14.48;;;5.70;99.90;;;;;;5046595;28;20028;-75
2022/11/26 05:42:09;;;;;;;34.78;13.98;;;5.70;99.90;;;;;;5046713;28;20029;-77
2022/11/26 05:44:35;;;;;;;32.63;14.60;;;5.60;99.90;;;;;;5047460;28;20032;-76
2022/11/26 05:47:01;;;;;;;32.72;13.38;;;5.60;99.90;;;;;;5047079;28;20037;-77
2022/11/26 05:49:26;;;;;;;41.83;14.10;;;5.60;99.90;;;;;;5044274;28;20056;-74
2022/11/26 05:51:52;;;;;;;40.00;13.73;;;5.60;99.90;;;;;;5036643;28;20048;-76
2022/11/26 05:54:17;;;;;;;40.83;15.02;;;5.60;99.90;;;;;;5037609;28;20025;-75
2022/11/26 05:56:43;;;;;;;33.35;15.05;;;5.50;99.90;;;;;;5034118;28;20033;-75
2022/11/26 05:59:09;;;;;;;38.55;13.82;;;5.50;99.90;;;;;;5033606;28;20451;-77
2022/11/26 06:01:35;;;;;;;50.33;14.20;;;5.50;99.90;;;;;;5034708;28;20044;-75
2022/11/26 06:04:01;;;;;;;48.15;14.68;;;5.40;99.90;;;;;;5015318;28;20032;-77
2022/11/26 06:06:26;;;;;;;48.05;14.07;;;5.50;99.90;;;;;;5017781;28;20084;-77
2022/11/26 06:08:52;;;;;;;49.88;14.00;;;5.50;99.90;;;;;;5017835;28;20033;-76
2022/11/26 06:11:17;;;;;;;38.47;14.07;;;5.40;99.90;;;;;;5021450;28;20018;-76
2022/11/26 06:13:43;;;;;;;39.88;14.05;;;5.40;99.90;;;;;;5015021;28;20030;-76
2022/11/26 06:16:09;;;;;;;39.03;14.00;;;5.40;99.90;;;;;;5014161;28;20034;-75
2022/11/26 06:18:38;;;;;;;40.15;14.02;;;5.40;99.90;;;;;;5013219;28;20061;-76
2022/11/26 06:21:06;;;;;;;36.80;14.25;;;5.50;99.90;;;;;;5013507;28;20418;-76
2022/11/26 06:23:33;;;;;;;34.10;12.45;;;5.50;99.90;;;;;;5030273;28;20018;-76
2022/11/26 06:25:59;;;;;;;39.47;13.10;;;5.50;99.90;;;;;;5025786;28;20042;-79
2022/11/26 06:28:24;;;;;;;45.60;14.65;;;5.40;99.90;;;;;;5027215;28;20093;-78
2022/11/26 06:30:50;;;;;;;36.67;13.57;;;5.50;99.90;;;;;;5031830;28;20037;-78
2022/11/26 06:33:15;;;;;;;39.05;13.57;;;5.50;99.90;;;;;;5013852;28;20064;-76
2022/11/26 06:35:41;;;;;;;35.05;13.75;;;5.50;99.90;;;;;;5013568;28;20033;-76
2022/11/26 06:38:07;;;;;;;44.97;13.85;;;5.40;99.90;;;;;;5017112;28;20030;-77
2022/11/26 06:40:34;;;;;;;41.15;13.98;;;5.40;99.90;;;;;;5013815;28;20034;-78
2022/11/26 06:43:00;;;;;;;32.33;12.48;;;5.40;99.90;;;;;;5024565;28;20025;-77
2022/11/26 06:45:25;;;;;;;32.28;11.77;;;5.40;99.90;;;;;;5037246;28;20025;-77
2022/11/26 06:47:51;;;;;;;35.33;12.88;;;5.50;99.90;;;;;;5036604;28;20033;-78
2022/11/26 06:50:19;;;;;;;32.40;12.32;;;5.50;99.90;;;;;;5024466;28;20031;-76
2022/11/26 06:52:45;;;;;;;42.78;12.77;;;5.50;99.90;;;;;;5016093;28;20017;-75
2022/11/26 06:55:11;;;;;;;35.97;12.60;;;5.50;99.90;;;;;;5014435;28;20425;-78
2022/11/26 06:57:37;;;;;;;45.65;12.52;;;5.50;99.90;;;;;;5016606;28;20041;-76
2022/11/26 07:00:04;;;;;;;34.97;13.27;;;5.60;99.90;;;;;;5015647;28;20458;-77
2022/11/26 07:02:30;;;;;;;37.08;10.68;;;5.60;99.90;;;;;;5014222;28;20042;-76
2022/11/26 07:04:56;;;;;;;33.35;11.60;;;5.60;99.90;;;;;;5022056;28;20021;-77
2022/11/26 07:07:21;;;;;;;33.10;12.05;;;5.60;99.90;;;;;;5015134;28;20042;-77
2022/11/26 07:09:47;;;;;;;38.83;12.32;;;5.60;99.90;;;;;;5018507;28;20383;-76
2022/11/26 07:12:12;;;;;;;38.90;11.15;;;5.60;99.90;;;;;;5020081;28;20026;-76
2022/11/26 07:14:38;;;;;;;32.58;11.55;;;5.60;99.90;;;;;;5018522;28;20018;-77
2022/11/26 07:17:03;;;;;;;40.78;11.05;;;5.60;99.90;;;;;;5020027;28;20113;-77
2022/11/26 07:19:29;;;;;;;34.38;11.30;;;5.60;99.90;;;;;;5020828;28;20022;-77
2022/11/26 07:21:55;;;;;;;34.30;11.43;;;5.70;99.90;;;;;;5021281;28;20071;-77
2022/11/26 07:24:20;;;;;;;36.55;11.07;;;5.70;99.90;;;;;;5028353;28;20075;-76
2022/11/26 07:26:46;;;;;;;30.10;11.48;;;5.70;99.90;;;;;;5037551;28;20102;-77
2022/11/26 07:29:12;;;;;;;30.95;10.50;;;5.80;99.90;;;;;;5035182;28;20028;-77
2022/11/26 07:31:37;;;;;;;36.80;12.05;;;5.80;99.90;;;;;;5036604;28;20021;-78
2022/11/26 07:34:03;;;;;;;39.15;9.57;;;5.90;99.90;;;;;;5037280;28;20026;-77
2022/11/26 07:36:29;;;;;;;28.73;10.35;;;5.90;99.90;;;;;;5037449;28;20026;-79
2022/11/26 07:38:57;;;;;;;23.33;9.90;;;6.00;99.90;;;;;;5036622;28;20084;-76
2022/11/26 07:41:24;;;;;;;34.00;9.75;;;5.90;99.90;;;;;;5037391;28;20421;-76
2022/11/26 07:43:50;;;;;;;31.67;10.57;;;6.00;99.90;;;;;;5035930;28;20033;-76
2022/11/26 07:46:18;;;;;;;29.98;10.15;;;6.00;99.90;;;;;;5037070;28;20018;-75
2022/11/26 07:48:44;;;;;;;26.58;9.68;;;6.00;99.90;;;;;;5036190;28;20043;-75
2022/11/26 07:51:19;;;;;;;28.85;10.18;;;6.00;99.90;;;;;;5034766;28;20029;-77
2022/11/26 07:53:45;;;;;;;45.22;11.10;;;6.10;99.90;;;;;;5029469;28;20477;-76
2022/11/26 07:56:10;;;;;;;31.17;9.57;;;6.10;99.90;;;;;;5033203;28;20017;-75
2022/11/26 07:58:36;;;;;;;22.45;9.82;;;6.10;99.90;;;;;;5034656;28;20132;-75
2022/11/26 08:01:06;;;;;;;36.08;10.10;;;6.20;99.90;;;;;;5034460;28;20510;-75
2022/11/26 08:03:32;;;;;;;31.70;9.68;;;6.20;99.90;;;;;;5032424;28;20033;-75
2022/11/26 08:05:57;;;;;;;36.58;9.60;;;6.40;99.90;;;;;;5034280;28;20021;-76
2022/11/26 08:08:23;;;;;;;31.25;10.43;;;6.30;99.90;;;;;;5029677;28;20037;-76
2022/11/26 08:10:48;;;;;;;28.40;9.13;;;6.40;99.90;;;;;;5035371;28;20096;-76
2022/11/26 08:13:14;;;;;;;28.98;9.18;;;6.40;99.90;;;;;;5026968;28;20053;-77
2022/11/26 08:15:39;;;;;;;29.83;9.82;;;6.40;99.90;;;;;;5035024;28;20022;-76
2022/11/26 08:18:05;;;;;;;36.83;9.52;;;6.50;99.90;;;;;;5034252;28;20389;-77
2022/11/26 08:20:30;;;;;;;29.23;8.95;;;6.50;99.90;;;;;;5032064;28;20018;-76
2022/11/26 08:22:56;;;;;;;38.60;10.65;;;6.60;99.90;;;;;;5035187;28;20381;-76
2022/11/26 08:25:21;;;;;;;30.55;9.57;;;6.60;99.90;;;;;;5029040;28;20045;-78
2022/11/26 08:27:47;;;;;;;41.00;11.43;;;6.60;99.90;;;;;;5035771;28;20038;-77
2022/11/26 08:30:14;;;;;;;38.85;9.27;;;6.70;99.90;;;;;;5036355;28;20056;-78
2022/11/26 08:32:39;;;;;;;28.30;8.73;;;6.60;99.90;;;;;;5036110;28;20257;-78
2022/11/26 08:35:05;;;;;;;39.50;9.05;;;6.70;99.90;;;;;;5036445;28;20036;-78
2022/11/26 08:37:30;;;;;;;32.72;9.27;;;6.70;99.90;;;;;;5036662;28;20434;-77
2022/11/26 08:39:56;;;;;;;35.63;8.63;;;6.80;99.90;;;;;;5035172;28;20282;-77
2022/11/26 08:42:22;;;;;;;29.55;9.50;;;6.80;99.90;;;;;;5035155;28;20021;-77
2022/11/26 08:44:49;;;;;;;35.08;9.95;;;6.90;99.90;;;;;;5039825;28;20500;-77
2022/11/26 08:47:15;;;;;;;31.77;9.80;;;6.90;99.90;;;;;;5035104;28;20037;-76
2022/11/26 08:49:40;;;;;;;35.67;9.07;;;6.90;99.90;;;;;;5027927;28;20071;-76
2022/11/26 08:52:06;;;;;;;22.90;8.55;;;7.00;99.90;;;;;;5016283;28;20486;-76
2022/11/26 08:54:32;;;;;;;26.27;9.02;;;7.10;99.90;;;;;;5017486;28;20036;-76
2022/11/26 08:56:57;;;;;;;38.28;9.88;;;7.10;99.90;;;;;;5025092;28;20508;-75
2022/11/26 08:59:24;;;;;;;31.98;9.07;;;7.10;99.90;;;;;;5034694;28;20033;-77
2022/11/26 09:01:49;;;;;;;24.67;9.07;;;7.20;99.90;;;;;;5034047;28;20036;-77
2022/11/26 09:04:15;;;;;;;40.08;10.00;;;7.20;99.90;;;;;;5035048;28;20108;-77
2022/11/26 09:06:41;;;;;;;37.75;9.90;;;7.20;99.90;;;;;;5035932;28;20018;-76
2022/11/26 09:09:13;;;;;;;31.17;8.45;;;7.20;99.90;;;;;;5034511;28;20048;-79
2022/11/26 09:11:43;;;;;;;37.22;9.75;;;7.20;99.90;;;;;;5035030;28;20026;-75
2022/11/26 09:14:10;;;;;;;30.05;8.98;;;7.30;99.90;;;;;;5031209;28;20156;-78
2022/11/26 09:16:36;;;;;;;33.03;9.65;;;7.30;99.90;;;;;;5020445;28;20030;-79
2022/11/26 09:19:04;;;;;;;30.52;9.70;;;7.30;99.90;;;;;;5021802;28;20049;-79
2022/11/26 09:21:31;;;;;;;31.33;10.75;;;8.40;99.90;;;;;;5029691;28;20030;-80
2022/11/26 09:23:57;;;;;;;33.00;10.77;;;7.30;99.90;;;;;;5031684;28;20025;-79
2022/11/26 09:26:25;;;;;;;38.40;10.50;;;7.30;99.90;;;;;;5021712;28;20484;-79
2022/11/26 09:28:51;;;;;;;29.92;9.52;;;7.30;99.90;;;;;;5028528;28;20037;-80
2022/11/26 09:31:17;;;;;;;48.00;10.35;;;7.40;99.90;;;;;;5033075;28;20340;-77
2022/11/26 09:33:46;;;;;;;32.72;9.20;;;7.40;99.90;;;;;;5034906;28;20112;-76
2022/11/26 09:36:14;;;;;;;37.55;10.65;;;7.40;99.90;;;;;;5020724;28;20152;-79
2022/11/26 09:38:40;;;;;;;39.63;10.90;;;7.50;99.90;;;;;;5023532;28;20550;-77
2022/11/26 09:41:14;;;;;;;37.25;9.57;;;7.50;99.90;;;;;;5021662;28;20129;-77
2022/11/26 09:44:15;;;;;;;27.58;9.10;;;7.60;99.90;;;;;;5030900;28;20025;-76
2022/11/26 09:47:09;;;;;;;33.05;9.23;;;7.70;99.90;;;;;;5030486;28;20025;-77
2022/11/26 09:49:41;;;;;;;35.13;9.23;;;7.80;99.90;;;;;;5031342;28;20029;-77
2022/11/26 09:52:08;;;;;;;27.70;9.10;;;7.90;99.90;;;;;;5027471;28;20018;-75
2022/11/26 09:54:35;;;;;;;34.25;9.30;;;7.90;99.90;;;;;;5034970;28;20083;-77
2022/11/26 09:57:26;;;;;;;33.22;8.77;;;8.00;99.90;;;;;;5032461;28;20025;-76
2022/11/26 09:59:54;;;;;;;31.52;9.10;;;8.00;99.90;;;;;;5030538;28;20035;-77
2022/11/26 10:02:19;;;;;;;33.67;8.25;;;8.20;99.90;;;;;;5032688;28;20043;-77
2022/11/26 10:04:46;;;;;;;37.20;9.73;;;8.20;99.90;;;;;;5031038;28;20444;-76
2022/11/26 10:07:47;;;;;;;24.00;8.82;;;8.20;99.90;;;;;;5032626;28;20099;-76
2022/11/26 10:10:28;;;;;;;34.47;9.27;;;8.30;99.90;;;;;;5029691;28;20117;-78
2022/11/26 10:13:04;;;;;;;28.98;9.10;;;8.30;99.90;;;;;;5028990;28;20034;-78
2022/11/26 10:15:37;;;;;;;34.47;9.00;;;8.30;99.90;;;;;;5032152;28;20056;-81
2022/11/26 10:18:29;;;;;;;35.45;9.30;;;8.40;99.90;;;;;;5027785;28;21310;-77
2022/11/26 10:21:24;;;;;;;25.85;8.45;;;8.40;99.90;;;;;;5031714;28;20033;-81
2022/11/26 10:23:59;;;;;;;23.92;8.05;;;8.40;99.90;;;;;;5029486;28;20021;-79
2022/11/26 10:26:33;;;;;;;27.67;8.95;;;8.40;99.90;;;;;;5030891;28;20164;-80
2022/11/26 10:29:19;;;;;;;38.25;9.38;;;8.40;99.90;;;;;;5028509;28;20571;-80
2022/11/26 10:31:47;;;;;;;28.05;9.25;;;8.50;99.90;;;;;;5029417;28;20018;-79
2022/11/26 10:34:38;;;;;;;32.28;9.52;;;8.60;99.90;;;;;;5027285;28;20648;-79
2022/11/26 10:37:04;;;;;;;25.60;8.10;;;8.60;99.90;;;;;;5030156;28;20508;-78
2022/11/26 10:39:30;;;;;;;30.05;9.45;;;8.70;99.90;;;;;;5028058;28;20029;-74
2022/11/26 10:41:55;;;;;;;39.53;9.02;;;8.80;99.90;;;;;;5025840;28;20022;-79
2022/11/26 10:44:33;;;;;;;29.67;8.25;;;8.70;99.90;;;;;;5027383;28;20037;-79
2022/11/26 10:47:18;;;;;;;30.58;8.40;;;8.70;99.90;;;;;;5027978;28;20132;-79
2022/11/26 10:49:43;;;;;;;24.20;8.98;;;8.70;99.90;;;;;;5028176;28;20021;-76
2022/11/26 10:52:10;;;;;;;19.52;7.90;;;8.80;99.90;;;;;;5020384;28;20748;-79
2022/11/26 10:54:37;;;;;;;30.42;8.55;;;8.70;99.90;;;;;;5030617;28;20167;-77
2022/11/26 10:57:08;;;;;;;27.52;8.32;;;8.70;99.90;;;;;;5021243;28;20017;-75
2022/11/26 10:59:50;;;;;;;33.10;8.45;;;8.80;99.90;;;;;;5015720;28;20125;-76
2022/11/26 11:02:19;;;;;;;24.63;8.05;;;8.90;99.90;;;;;;5016835;28;20620;-76
2022/11/26 11:04:48;;;;;;;25.15;8.10;;;9.00;99.90;;;;;;5020559;28;20079;-77
2022/11/26 11:07:46;;;;;;;26.50;8.25;;;9.10;99.90;;;;;;5026874;28;20037;-73
2022/11/26 11:10:11;;;;;;;27.73;8.32;;;9.20;99.90;;;;;;5020150;28;20394;-78
2022/11/26 11:12:42;;;;;;;20.02;7.47;;;9.30;99.90;;;;;;5032201;28;20030;-79
2022/11/26 11:15:17;;;;;;;32.90;9.18;;;9.40;99.90;;;;;;5026258;28;20025;-76
2022/11/26 11:17:53;;;;;;;29.50;8.00;;;9.50;99.90;;;;;;5030292;28;20033;-78
2022/11/26 11:20:39;;;;;;;22.60;7.47;;;9.60;99.90;;;;;;5030010;28;20080;-80
2022/11/26 11:23:17;;;;;;;27.20;7.43;;;9.70;99.90;;;;;;5031105;28;20040;-79
2022/11/26 11:25:47;;;;;;;23.80;7.45;;;9.80;99.90;;;;;;5031838;28;20144;-78
2022/11/26 11:28:17;;;;;;;19.45;6.85;;;9.80;99.90;;;;;;5029379;28;20138;-70
2022/11/26 11:30:44;;;;;;;;;;;9.90;99.90;;;;;;5031156;28;20022;-79
2022/11/26 11:33:23;;;;;;;30.48;8.55;;;9.90;99.90;;;;;;5030674;28;20304;-79
2022/11/26 11:36:10;;;;;;;23.58;7.45;;;10.00;99.90;;;;;;5030676;28;20053;-78
2022/11/26 11:38:51;;;;;;;20.98;7.05;;;10.00;99.90;;;;;;5031151;28;20523;-80
2022/11/26 11:41:28;;;;;;;26.80;7.00;;;9.90;99.90;;;;;;5031125;28;20021;-80
2022/11/26 11:44:16;;;;;;;15.95;6.35;;;9.90;99.90;;;;;;5030254;28;20029;-79
2022/11/26 11:47:06;;;;;;;21.48;6.75;;;9.90;99.90;;;;;;5031438;28;20040;-78
2022/11/26 11:50:03;;;;;;;25.88;7.53;;;9.90;99.90;;;;;;5030774;28;20026;-78
2022/11/26 11:53:01;;;;;;;16.85;6.50;;;9.90;99.90;;;;;;5022044;28;20089;-79
2022/11/26 11:55:50;;;;;;;18.77;6.28;;;9.80;99.90;;;;;;5019803;28;20037;-78
2022/11/26 11:58:30;;;;;;;29.95;7.00;;;9.80;99.90;;;;;;5024917;28;20025;-78
2022/11/26 12:01:10;;;;;;;20.85;7.65;;;9.80;99.90;;;;;;5032896;28;20029;-77
2022/11/26 12:04:00;;;;;;;26.58;7.43;;;9.80;99.90;;;;;;5027953;28;20025;-78
2022/11/26 12:06:42;;;;;;;22.15;7.45;;;9.80;99.90;;;;;;5034400;28;20080;-78
2022/11/26 12:09:29;;;;;;;21.95;7.88;;;9.80;99.90;;;;;;5034177;28;20060;-77
2022/11/26 12:12:10;;;;;;;18.88;6.88;;;9.80;99.90;;;;;;5028362;28;20034;-79
2022/11/26 12:14:52;;;;;;;30.65;7.18;;;9.80;99.90;;;;;;5024340;28;20036;-78
2022/11/26 12:17:39;;;;;;;22.90;8.00;;;9.90;99.90;;;;;;5020940;28;20029;-79
2022/11/26 12:20:39;;;;;;;24.08;7.50;;;9.90;99.90;;;;;;5020768;28;20468;-79
2022/11/26 12:23:21;;;;;;;21.42;7.35;;;9.90;99.90;;;;;;5020037;28;20409;-79
2022/11/26 12:25:52;;;;;;;23.20;7.57;;;10.00;99.90;;;;;;5033627;28;20111;-78
2022/11/26 12:28:25;;;;;;;18.95;6.60;;;10.00;99.90;;;;;;5033782;28;20061;-78
2022/11/26 12:31:04;;;;;;;23.27;7.13;;;10.10;99.90;;;;;;5030230;28;20390;-77
2022/11/26 12:33:35;;;;;;;26.65;7.38;;;10.20;99.90;;;;;;5041651;28;20028;-77
2022/11/26 12:36:30;;;;;;;21.65;7.43;;;10.30;99.90;;;;;;5029233;28;20029;-78
2022/11/26 12:39:02;;;;;;;31.63;8.05;;;10.30;99.90;;;;;;5032693;28;20018;-77
2022/11/26 12:41:39;;;;;;;20.23;7.15;;;10.30;99.90;;;;;;5035100;28;20052;-78
2022/11/26 12:44:34;;;;;;;16.02;6.88;;;10.40;99.90;;;;;;5030969;28;20026;-78
2022/11/26 12:47:08;;;;;;;27.58;7.70;;;10.40;99.90;;;;;;5025308;28;20397;-78
2022/11/26 12:50:01;;;;;;;15.88;6.75;;;10.50;99.90;;;;;;5034149;28;20036;-78
2022/11/26 12:52:48;;;;;;;22.70;7.47;;;10.50;99.90;;;;;;5033950;28;20556;-79
2022/11/26 12:55:26;;;;;;;19.95;7.28;;;10.40;99.90;;;;;;5031063;28;20014;-78
2022/11/26 12:58:01;;;;;;;25.95;7.30;;;10.50;99.90;;;;;;5034678;28;20469;-77
2022/11/26 13:00:35;;;;;;;27.42;6.88;;;10.60;99.90;;;;;;5032537;28;20036;-79